Briary, Texas
Current Conditions -  °F | °C
As of 6:35 PM on Monday 22 Dec 2014 (Local Time) from KT35 Reporting Station
Clear Clear  
Wind Chill: 61°   Ceiling: Unl
Heat Index: 61°   Visibility: 10mi
Dew Point: 55°   Wind: 0mph
Humidity: 80%   Direction: NA
Pressure: 29.65"   Gusts: NA
Location:  31.0981°N, 96.99°W
Report Text: KT35 230035Z AUTO 00000KT 10SM CLR 16/13 A2965 RMK AO2 T01610126
Loading
Personal Weather Stations






























Interactive Weather Map New forecast layout! Learn more

10-Day Weather Forecast

Advertisements
Track Severe Weather on mobile